createdAt,value
2023-03-16T00:01:21.410Z,16.33
2023-03-16T00:03:49.284Z,15.37
2023-03-16T00:06:20.995Z,15.50
2023-03-16T00:08:58.956Z,15.27
2023-03-16T00:11:30.675Z,13.40
2023-03-16T00:14:00.586Z,12.90
2023-03-16T00:16:28.384Z,17.67
2023-03-16T00:18:56.163Z,9.67
2023-03-16T00:21:25.385Z,12.77
2023-03-16T00:23:53.488Z,13.53
2023-03-16T00:26:22.522Z,15.13
2023-03-16T00:28:54.940Z,15.63
2023-03-16T00:31:25.071Z,17.07
2023-03-16T00:33:53.332Z,13.33
2023-03-16T00:36:24.414Z,11.07
2023-03-16T00:38:54.193Z,15.03
2023-03-16T00:41:22.953Z,13.20
2023-03-16T00:43:52.179Z,10.80
2023-03-16T00:46:19.982Z,20.90
2023-03-16T00:48:48.825Z,12.97
2023-03-16T00:51:19.045Z,12.90
2023-03-16T00:53:53.532Z,16.47
2023-03-16T00:56:23.001Z,20.27
2023-03-16T00:58:57.629Z,15.60
2023-03-16T01:01:26.425Z,16.20
2023-03-16T01:03:55.951Z,16.50
2023-03-16T01:06:24.281Z,12.37
2023-03-16T01:08:55.219Z,17.17
2023-03-16T01:11:24.929Z,11.37
2023-03-16T01:13:55.957Z,12.90
2023-03-16T01:16:24.284Z,16.43
2023-03-16T01:18:52.644Z,16.90
2023-03-16T01:21:23.023Z,14.90
2023-03-16T01:23:50.910Z,12.37
2023-03-16T01:26:18.947Z,11.83
2023-03-16T01:28:48.636Z,15.50
2023-03-16T01:31:20.560Z,11.37
2023-03-16T01:33:49.535Z,14.47
2023-03-16T01:36:18.989Z,11.30
2023-03-16T01:38:47.080Z,12.27
2023-03-16T01:41:19.747Z,16.07
2023-03-16T01:43:49.185Z,11.73
2023-03-16T01:46:21.749Z,13.97
2023-03-16T01:49:00.373Z,13.07
2023-03-16T01:51:34.336Z,12.87
2023-03-16T01:54:08.523Z,8.87
2023-03-16T01:56:43.481Z,12.80
2023-03-16T01:59:16.135Z,12.70
2023-03-16T02:01:44.627Z,11.87
2023-03-16T02:04:27.112Z,12.73
2023-03-16T02:06:56.521Z,12.67
2023-03-16T02:09:39.453Z,11.70
2023-03-16T02:12:08.340Z,10.53
2023-03-16T02:14:39.554Z,12.57
2023-03-16T02:17:08.883Z,10.60
2023-03-16T02:19:43.464Z,12.67
2023-03-16T02:22:11.768Z,7.30
2023-03-16T02:24:42.727Z,10.97
2023-03-16T02:27:11.855Z,12.00
2023-03-16T02:29:57.604Z,14.63
2023-03-16T02:32:27.178Z,9.60
2023-03-16T02:34:58.489Z,10.90
2023-03-16T02:37:31.479Z,12.87
2023-03-16T02:40:06.610Z,11.30
2023-03-16T02:42:37.028Z,8.77
2023-03-16T02:45:10.339Z,13.37
2023-03-16T02:47:41.857Z,8.67
2023-03-16T02:50:10.679Z,13.73
2023-03-16T02:52:39.435Z,11.30
2023-03-16T02:55:10.276Z,15.17
2023-03-16T02:57:39.467Z,12.20
2023-03-16T03:00:17.108Z,13.70
2023-03-16T03:02:45.175Z,12.30
2023-03-16T03:05:13.017Z,9.30
2023-03-16T03:07:44.072Z,9.67
2023-03-16T03:10:12.425Z,15.20
2023-03-16T03:12:40.211Z,12.70
2023-03-16T03:15:14.787Z,11.00
2023-03-16T03:17:43.070Z,11.03
2023-03-16T03:20:16.817Z,10.47
2023-03-16T03:22:46.027Z,15.27
2023-03-16T03:25:15.165Z,11.33
2023-03-16T03:27:46.093Z,12.50
2023-03-16T03:30:19.982Z,11.97
2023-03-16T03:32:48.975Z,11.10
2023-03-16T03:38:15.507Z,9.77
2023-03-16T03:40:43.271Z,13.30
2023-03-16T03:43:10.976Z,10.10
2023-03-16T03:45:40.085Z,13.07
2023-03-16T03:48:07.991Z,11.20
2023-03-16T03:50:36.244Z,12.60
2023-03-16T03:53:04.035Z,13.10
2023-03-16T03:55:31.827Z,12.43
2023-03-16T03:57:59.966Z,12.50
2023-03-16T04:00:30.242Z,12.37
2023-03-16T04:02:59.629Z,13.83
2023-03-16T04:05:28.001Z,12.37
2023-03-16T04:07:57.496Z,13.80
2023-03-16T04:10:27.356Z,16.23
2023-03-16T04:12:57.112Z,18.17
2023-03-16T04:15:25.746Z,13.10
2023-03-16T04:17:58.129Z,13.20
2023-03-16T04:20:29.828Z,11.20
2023-03-16T04:23:01.550Z,14.30
2023-03-16T04:25:30.596Z,16.83
2023-03-16T04:28:02.108Z,15.90
2023-03-16T04:30:30.977Z,13.97
2023-03-16T04:32:58.903Z,12.10
2023-03-16T04:35:28.756Z,13.27
2023-03-16T04:37:59.371Z,11.87
2023-03-16T04:40:27.430Z,15.37
2023-03-16T04:42:56.733Z,13.30
2023-03-16T04:45:27.515Z,15.00
2023-03-16T04:47:58.455Z,12.87
2023-03-16T04:50:29.767Z,14.33
2023-03-16T04:52:59.109Z,12.87
2023-03-16T04:55:27.305Z,13.73
2023-03-16T04:57:55.317Z,13.00
2023-03-16T05:00:24.129Z,13.67
2023-03-16T05:02:52.751Z,10.50
2023-03-16T05:05:21.504Z,12.47
2023-03-16T05:07:49.641Z,13.27
2023-03-16T05:10:21.146Z,14.30
2023-03-16T05:12:48.949Z,13.47
2023-03-16T05:15:16.760Z,15.00
2023-03-16T05:17:47.289Z,14.03
2023-03-16T05:20:16.503Z,12.10
2023-03-16T05:22:48.316Z,16.00
2023-03-16T05:25:21.734Z,11.80
2023-03-16T05:27:54.945Z,13.03
2023-03-16T05:30:22.965Z,14.83
2023-03-16T05:32:51.413Z,9.93
2023-03-16T05:35:24.182Z,10.73
2023-03-16T05:37:52.651Z,12.73
2023-03-16T05:40:25.097Z,14.23
2023-03-16T05:42:58.555Z,13.70
2023-03-16T05:45:29.453Z,15.47
2023-03-16T05:47:57.420Z,15.13
2023-03-16T05:50:26.779Z,16.53
2023-03-16T05:52:56.522Z,16.30
2023-03-16T05:55:26.060Z,16.27
2023-03-16T05:57:54.188Z,11.20
2023-03-16T06:00:27.735Z,14.60
2023-03-16T06:02:58.985Z,16.43
2023-03-16T06:05:30.378Z,12.23
2023-03-16T06:07:58.097Z,10.13
2023-03-16T06:10:34.135Z,14.80
2023-03-16T06:13:05.020Z,12.07
2023-03-16T06:15:32.872Z,14.67
2023-03-16T06:18:03.575Z,11.80
2023-03-16T06:20:31.412Z,17.83
2023-03-16T06:22:59.476Z,10.43
2023-03-16T06:25:29.120Z,11.43
2023-03-16T06:27:56.870Z,12.50
2023-03-16T06:30:24.689Z,13.87
2023-03-16T06:32:54.779Z,13.60
2023-03-16T06:35:24.648Z,12.53
2023-03-16T06:37:55.481Z,13.67
2023-03-16T06:40:26.318Z,15.37
2023-03-16T06:42:58.337Z,14.97
2023-03-16T06:45:26.051Z,14.60
2023-03-16T06:47:53.924Z,14.93
2023-03-16T06:50:24.878Z,13.00
2023-03-16T06:52:52.927Z,12.43
2023-03-16T06:55:21.994Z,12.53
2023-03-16T06:57:50.266Z,16.30
2023-03-16T07:00:20.276Z,14.83
2023-03-16T07:02:50.588Z,14.53
2023-03-16T07:05:19.079Z,13.63
2023-03-16T07:07:48.975Z,14.57
2023-03-16T07:10:21.300Z,12.57
2023-03-16T07:12:51.112Z,13.50
2023-03-16T07:15:21.834Z,17.10
2023-03-16T07:17:49.902Z,14.07
2023-03-16T07:20:23.673Z,13.67
2023-03-16T07:22:52.477Z,13.40
2023-03-16T07:25:21.872Z,16.70
2023-03-16T07:27:49.727Z,15.30
2023-03-16T07:30:17.732Z,13.30
2023-03-16T07:32:51.226Z,16.03
2023-03-16T07:35:22.005Z,15.80
2023-03-16T07:37:51.112Z,11.73
2023-03-16T07:40:19.162Z,12.70
2023-03-16T07:42:49.252Z,15.83
2023-03-16T07:45:21.205Z,13.50
2023-03-16T07:47:56.792Z,12.57
2023-03-16T07:50:24.668Z,16.60
2023-03-16T07:52:57.112Z,12.73
2023-03-16T07:55:26.119Z,16.40
2023-03-16T07:57:53.942Z,14.10
2023-03-16T08:00:24.333Z,15.50
2023-03-16T08:02:54.044Z,13.43
2023-03-16T08:05:22.225Z,13.43
2023-03-16T08:07:51.359Z,20.80
2023-03-16T08:10:22.162Z,22.70
2023-03-16T08:12:55.943Z,11.50
2023-03-16T08:15:27.620Z,13.70
2023-03-16T08:17:59.276Z,11.37
2023-03-16T08:20:35.514Z,11.87
2023-03-16T08:23:12.120Z,9.63
2023-03-16T08:25:50.636Z,17.83
2023-03-16T08:28:21.494Z,10.57
2023-03-16T08:30:53.115Z,11.40
2023-03-16T08:33:24.843Z,10.13
2023-03-16T08:36:01.344Z,14.73
2023-03-16T08:38:29.684Z,15.00
2023-03-16T08:40:58.327Z,9.60
2023-03-16T08:43:27.582Z,15.73
2023-03-16T08:45:56.035Z,14.60
2023-03-16T08:48:31.432Z,13.00
2023-03-16T08:51:01.037Z,11.40
2023-03-16T08:53:31.009Z,8.83
2023-03-16T08:56:06.907Z,12.70
2023-03-16T08:58:36.807Z,10.60
2023-03-16T09:01:06.914Z,13.07
2023-03-16T09:03:37.897Z,13.53
2023-03-16T09:06:07.545Z,11.47
2023-03-16T09:08:35.627Z,15.77
2023-03-16T09:11:05.662Z,10.07
2023-03-16T09:13:36.732Z,11.00
2023-03-16T09:16:06.140Z,13.00
2023-03-16T09:18:36.295Z,11.43
2023-03-16T09:21:06.212Z,11.50
2023-03-16T09:23:38.244Z,7.87
2023-03-16T09:26:07.450Z,11.47
2023-03-16T09:28:39.452Z,8.60
2023-03-16T09:31:11.770Z,8.37
2023-03-16T09:33:42.034Z,7.67
2023-03-16T09:36:14.025Z,6.83
2023-03-16T09:38:46.458Z,7.10
2023-03-16T09:41:32.718Z,6.50
2023-03-16T09:44:07.247Z,4.73
2023-03-16T09:46:41.563Z,4.87
2023-03-16T09:49:12.480Z,7.40
2023-03-16T09:51:45.309Z,4.33
2023-03-16T09:54:22.136Z,5.63
2023-03-16T09:56:51.243Z,6.50
2023-03-16T09:59:19.593Z,4.50
2023-03-16T10:02:00.953Z,4.13
2023-03-16T10:04:45.148Z,6.60
2023-03-16T10:07:24.802Z,7.20
2023-03-16T10:09:57.857Z,6.53
2023-03-16T10:12:27.939Z,10.27
2023-03-16T10:15:01.247Z,6.17
2023-03-16T10:17:32.230Z,6.93
2023-03-16T10:20:10.796Z,7.13
2023-03-16T10:22:41.236Z,6.47
2023-03-16T10:25:14.326Z,6.17
2023-03-16T10:27:45.343Z,6.30
2023-03-16T10:30:22.207Z,8.00
2023-03-16T10:32:50.965Z,5.23
2023-03-16T10:35:31.090Z,6.23
2023-03-16T10:38:00.145Z,4.77
2023-03-16T10:40:32.778Z,9.83
2023-03-16T10:43:08.730Z,6.23
2023-03-16T10:45:37.743Z,9.40
2023-03-16T10:48:11.410Z,5.80
2023-03-16T10:50:45.205Z,6.20
2023-03-16T10:53:20.988Z,4.50
2023-03-16T10:55:54.507Z,5.57
2023-03-16T10:58:30.672Z,4.90
2023-03-16T11:01:07.310Z,4.60
2023-03-16T11:03:40.191Z,4.53
2023-03-16T11:06:25.384Z,4.30
2023-03-16T11:09:05.307Z,4.37
2023-03-16T11:11:33.997Z,5.73
2023-03-16T11:14:04.643Z,5.07
2023-03-16T11:16:37.273Z,6.20
2023-03-16T11:19:12.362Z,5.17
2023-03-16T11:21:51.420Z,5.40
2023-03-16T11:24:27.368Z,5.13
2023-03-16T11:26:59.482Z,4.10
2023-03-16T11:29:40.900Z,7.17
2023-03-16T11:32:17.488Z,3.47
2023-03-16T11:34:46.773Z,3.67
2023-03-16T11:37:27.756Z,4.63
2023-03-16T11:40:09.563Z,6.77
2023-03-16T11:42:44.596Z,4.60
2023-03-16T11:45:24.780Z,7.70
2023-03-16T11:48:19.361Z,6.10
2023-03-16T11:51:02.821Z,6.70
2023-03-16T11:53:44.102Z,3.67
2023-03-16T11:56:18.331Z,4.83
2023-03-16T11:59:16.489Z,6.07
2023-03-16T12:02:00.811Z,4.53
2023-03-16T12:04:52.589Z,6.10
2023-03-16T12:07:37.532Z,5.90
2023-03-16T12:10:26.520Z,4.60
2023-03-16T12:13:10.533Z,4.87
2023-03-16T12:15:42.228Z,9.10
2023-03-16T12:18:16.519Z,6.63
2023-03-16T12:20:56.877Z,7.00
2023-03-16T12:23:30.670Z,4.23
2023-03-16T12:26:00.810Z,7.47
2023-03-16T12:28:30.161Z,3.80
2023-03-16T12:31:09.471Z,5.10
2023-03-16T12:33:48.526Z,7.20
2023-03-16T12:36:49.082Z,6.60
2023-03-16T12:39:24.430Z,6.13
2023-03-16T12:42:06.428Z,10.10
2023-03-16T12:44:42.721Z,16.47
2023-03-16T12:47:28.406Z,9.43
2023-03-16T12:49:57.379Z,5.50
2023-03-16T12:52:35.332Z,8.87
2023-03-16T12:55:10.100Z,6.80
2023-03-16T12:57:41.033Z,7.43
2023-03-16T13:00:11.367Z,5.80
2023-03-16T13:02:40.832Z,13.97
2023-03-16T13:05:11.499Z,10.33
2023-03-16T13:07:47.679Z,14.40
2023-03-16T13:10:17.478Z,7.80
2023-03-16T13:12:49.995Z,9.60
2023-03-16T13:15:28.369Z,5.50
2023-03-16T13:18:07.857Z,6.20
2023-03-16T13:20:36.940Z,11.17
2023-03-16T13:23:11.515Z,11.70
2023-03-16T13:25:46.711Z,7.33
2023-03-16T13:28:21.479Z,9.27
2023-03-16T13:30:50.863Z,7.10
2023-03-16T13:33:21.933Z,7.70
2023-03-16T13:35:52.419Z,6.37
2023-03-16T13:38:25.890Z,4.63
2023-03-16T13:40:57.527Z,6.03
2023-03-16T13:43:32.915Z,3.30
2023-03-16T13:46:01.538Z,15.30
2023-03-16T13:48:32.713Z,4.70
2023-03-16T13:51:00.630Z,4.00
2023-03-16T13:53:31.735Z,5.40
2023-03-16T13:56:02.162Z,4.93
2023-03-16T13:58:35.516Z,9.13
2023-03-16T14:01:05.115Z,6.33
2023-03-16T14:03:34.467Z,4.37
2023-03-16T14:06:05.706Z,6.23
2023-03-16T14:08:34.749Z,4.43
2023-03-16T14:11:02.694Z,5.27
2023-03-16T14:13:38.301Z,4.43
2023-03-16T14:16:13.772Z,9.93
2023-03-16T14:18:47.409Z,4.57
2023-03-16T14:21:21.037Z,4.37
2023-03-16T14:23:52.953Z,2.83
2023-03-16T14:26:24.874Z,5.90
2023-03-16T14:29:02.929Z,9.33
2023-03-16T14:31:41.026Z,3.67
2023-03-16T14:34:22.173Z,4.50
2023-03-16T14:36:50.092Z,3.37
2023-03-16T14:39:22.158Z,3.10
2023-03-16T14:41:53.543Z,4.00
2023-03-16T14:44:28.063Z,5.83
2023-03-16T14:47:00.570Z,8.57
2023-03-16T14:49:32.283Z,4.87
2023-03-16T14:52:02.298Z,13.37
2023-03-16T14:54:30.384Z,7.70
2023-03-16T14:57:01.352Z,2.90
2023-03-16T14:59:30.786Z,10.87
2023-03-16T15:01:59.255Z,4.57
2023-03-16T15:04:29.348Z,4.23
2023-03-16T15:06:57.096Z,5.07
2023-03-16T15:09:39.918Z,4.43
2023-03-16T15:12:25.042Z,7.20
2023-03-16T15:15:12.050Z,10.90
2023-03-16T15:17:42.284Z,6.20
2023-03-16T15:20:15.242Z,7.40
2023-03-16T15:22:46.923Z,4.20
2023-03-16T15:25:25.636Z,4.00
2023-03-16T15:27:54.372Z,4.97
2023-03-16T15:30:28.746Z,4.43
2023-03-16T15:32:58.263Z,4.37
2023-03-16T15:35:32.138Z,4.50
2023-03-16T15:38:01.445Z,6.20
2023-03-16T15:40:30.317Z,4.53
2023-03-16T15:42:58.471Z,5.30
2023-03-16T15:45:28.590Z,6.10
2023-03-16T15:47:59.829Z,4.90
2023-03-16T15:50:27.973Z,6.87
2023-03-16T15:52:59.578Z,4.83
2023-03-16T15:55:34.460Z,6.63
2023-03-16T15:58:03.747Z,3.17
2023-03-16T16:00:37.418Z,3.90
2023-03-16T16:03:07.329Z,6.17
2023-03-16T16:05:37.615Z,4.30
2023-03-16T16:08:06.915Z,3.10
2023-03-16T16:10:40.432Z,4.07
2023-03-16T16:13:12.387Z,3.37
2023-03-16T16:15:43.140Z,3.87
2023-03-16T16:18:28.143Z,6.70
2023-03-16T16:20:56.708Z,7.43
2023-03-16T16:23:26.819Z,7.13
2023-03-16T16:26:00.317Z,14.83
2023-03-16T16:28:32.139Z,12.20
2023-03-16T16:31:01.950Z,6.70
2023-03-16T16:33:34.120Z,69.47
2023-03-16T16:36:03.550Z,80.30
2023-03-16T16:38:33.590Z,11.03
2023-03-16T16:41:06.749Z,11.03
2023-03-16T16:43:37.936Z,18.67
2023-03-16T16:46:13.525Z,6.90
2023-03-16T16:48:44.237Z,6.20
2023-03-16T16:51:18.499Z,6.40
2023-03-16T16:53:51.093Z,6.87
2023-03-16T16:56:24.058Z,7.70
2023-03-16T16:58:54.091Z,6.40
2023-03-16T17:01:27.294Z,9.10
2023-03-16T17:03:55.429Z,6.83
2023-03-16T17:06:23.627Z,7.43
2023-03-16T17:08:55.264Z,4.40
2023-03-16T17:11:25.588Z,6.00
2023-03-16T17:13:54.338Z,6.70
2023-03-16T17:16:27.761Z,9.57
2023-03-16T17:18:57.557Z,5.80
2023-03-16T17:21:27.019Z,5.80
2023-03-16T17:23:56.124Z,13.60
2023-03-16T17:26:27.955Z,11.43
2023-03-16T17:28:58.176Z,7.63
2023-03-16T17:31:31.076Z,15.47
2023-03-16T17:34:02.205Z,8.70
2023-03-16T17:36:30.432Z,7.93
2023-03-16T17:39:00.157Z,21.53
2023-03-16T17:41:32.432Z,21.20
2023-03-16T17:44:04.081Z,20.70
2023-03-16T17:46:33.310Z,8.30
2023-03-16T17:49:02.373Z,16.73
2023-03-16T17:51:32.491Z,10.13
2023-03-16T17:54:01.449Z,19.27
2023-03-16T17:56:29.960Z,22.80
2023-03-16T17:59:01.097Z,6.97
2023-03-16T18:01:43.875Z,6.70
2023-03-16T18:04:17.174Z,9.53
2023-03-16T18:06:49.328Z,6.40
2023-03-16T18:09:21.359Z,10.10
2023-03-16T18:11:55.402Z,8.80
2023-03-16T18:14:36.236Z,9.47
2023-03-16T18:17:14.307Z,7.23
2023-03-16T18:19:59.091Z,7.83
2023-03-16T18:22:30.260Z,6.10
2023-03-16T18:24:58.023Z,5.87
2023-03-16T18:27:25.800Z,7.43
2023-03-16T18:29:56.594Z,6.00
2023-03-16T18:32:27.838Z,6.57
2023-03-16T18:34:58.540Z,8.77
2023-03-16T18:37:28.230Z,7.60
2023-03-16T18:39:59.091Z,9.47
2023-03-16T18:42:27.753Z,9.17
2023-03-16T18:44:55.637Z,7.13
2023-03-16T18:47:34.297Z,7.97
2023-03-16T18:50:03.298Z,6.00
2023-03-16T18:52:36.077Z,9.10
2023-03-16T18:55:03.961Z,7.03
2023-03-16T18:57:33.886Z,8.27
2023-03-16T19:00:02.863Z,4.50
2023-03-16T19:02:37.214Z,6.10
2023-03-16T19:05:06.678Z,6.90
2023-03-16T19:07:39.453Z,8.53
2023-03-16T19:10:13.564Z,8.93
2023-03-16T19:12:45.344Z,7.80
2023-03-16T19:15:19.818Z,8.47
2023-03-16T19:17:49.316Z,10.00
2023-03-16T19:20:21.191Z,10.13
2023-03-16T19:22:51.119Z,12.80
2023-03-16T19:25:21.112Z,12.97
2023-03-16T19:27:51.934Z,9.20
2023-03-16T19:30:24.262Z,13.00
2023-03-16T19:33:10.333Z,9.43
2023-03-16T19:35:52.191Z,9.23
2023-03-16T19:38:25.748Z,9.23
2023-03-16T19:40:56.057Z,6.90
2023-03-16T19:43:24.366Z,7.97
2023-03-16T19:45:56.622Z,12.67
2023-03-16T19:48:35.628Z,10.40
2023-03-16T19:51:12.703Z,9.60
2023-03-16T19:53:41.094Z,5.70
2023-03-16T19:56:15.836Z,8.10
2023-03-16T19:58:45.749Z,5.50
2023-03-16T20:01:21.692Z,7.53
2023-03-16T20:03:51.717Z,7.87
2023-03-16T20:06:29.861Z,6.67
2023-03-16T20:09:02.842Z,6.77
2023-03-16T20:11:35.078Z,6.97
2023-03-16T20:14:03.710Z,6.47
2023-03-16T20:16:36.345Z,6.53
2023-03-16T20:19:14.768Z,5.40
2023-03-16T20:21:42.922Z,4.60
2023-03-16T20:24:15.386Z,7.50
2023-03-16T20:26:47.394Z,4.83
2023-03-16T20:29:22.425Z,4.70
2023-03-16T20:31:51.800Z,5.73
2023-03-16T20:34:23.478Z,5.83
2023-03-16T20:36:54.227Z,6.47
2023-03-16T20:39:22.206Z,6.10
2023-03-16T20:41:50.738Z,6.03
2023-03-16T20:44:23.635Z,5.13
2023-03-16T20:46:56.865Z,3.93
2023-03-16T20:49:34.113Z,7.23
2023-03-16T20:52:01.973Z,5.60
2023-03-16T20:54:35.168Z,5.33
2023-03-16T20:57:04.177Z,8.07
2023-03-16T20:59:34.619Z,8.30
2023-03-16T21:02:09.828Z,7.87
2023-03-16T21:04:44.216Z,6.97
2023-03-16T21:07:12.479Z,10.47
2023-03-16T21:09:49.926Z,7.20
2023-03-16T21:12:26.207Z,7.07
2023-03-16T21:14:57.249Z,6.37
2023-03-16T21:17:29.050Z,6.00
2023-03-16T21:19:58.460Z,6.30
2023-03-16T21:22:30.406Z,5.10
2023-03-16T21:24:58.516Z,7.67
2023-03-16T21:27:28.018Z,4.73
2023-03-16T21:30:05.293Z,6.70
2023-03-16T21:32:35.434Z,7.10
2023-03-16T21:35:05.455Z,7.10
2023-03-16T21:37:33.571Z,7.63
2023-03-16T21:40:01.680Z,7.60
2023-03-16T21:42:32.412Z,6.83
2023-03-16T21:45:00.134Z,5.43
2023-03-16T21:47:33.374Z,7.13
2023-03-16T21:50:07.420Z,7.37
2023-03-16T21:52:37.566Z,6.30
2023-03-16T21:55:07.602Z,7.60
2023-03-16T21:57:36.459Z,8.23
2023-03-16T22:00:08.676Z,7.90
2023-03-16T22:02:39.724Z,8.83
2023-03-16T22:05:29.963Z,6.90
2023-03-16T22:07:58.694Z,6.03
2023-03-16T22:10:28.434Z,6.63
2023-03-16T22:13:00.018Z,7.60
2023-03-16T22:15:28.291Z,7.60
2023-03-16T22:17:56.801Z,5.80
2023-03-16T22:20:27.450Z,6.50
2023-03-16T22:22:56.191Z,5.43
2023-03-16T22:25:26.544Z,6.10
2023-03-16T22:27:55.077Z,5.70
2023-03-16T22:30:26.679Z,6.77
2023-03-16T22:33:00.226Z,11.07
2023-03-16T22:35:33.014Z,7.00
2023-03-16T22:38:02.520Z,7.10
2023-03-16T22:40:32.171Z,8.70
2023-03-16T22:43:03.354Z,6.63
2023-03-16T22:45:33.891Z,6.60
2023-03-16T22:48:03.491Z,6.77
2023-03-16T22:50:44.560Z,7.00
2023-03-16T22:53:13.318Z,6.97
2023-03-16T22:55:41.685Z,8.17
2023-03-16T22:58:14.591Z,6.23
2023-03-16T23:00:44.748Z,6.10
2023-03-16T23:03:19.718Z,7.80
2023-03-16T23:05:51.058Z,7.17
2023-03-16T23:08:26.826Z,8.23
2023-03-16T23:10:57.790Z,6.27
2023-03-16T23:13:26.164Z,7.50
2023-03-16T23:15:55.401Z,4.77
2023-03-16T23:18:37.959Z,7.67
2023-03-16T23:21:07.573Z,6.07
2023-03-16T23:23:35.435Z,5.40
2023-03-16T23:26:06.715Z,5.10
2023-03-16T23:28:42.271Z,6.70
2023-03-16T23:31:12.109Z,7.50
2023-03-16T23:33:40.848Z,8.50
2023-03-16T23:36:18.851Z,5.13
2023-03-16T23:38:50.548Z,8.50
2023-03-16T23:41:19.463Z,5.30
2023-03-16T23:43:53.269Z,6.90
2023-03-16T23:46:24.968Z,10.30
2023-03-16T23:48:54.564Z,4.97
2023-03-16T23:51:27.255Z,9.07
2023-03-16T23:53:56.627Z,6.60
2023-03-16T23:56:24.821Z,6.40
2023-03-16T23:58:55.711Z,8.17
